Time;durP1;ratioP1;P1;durP2;ratioP2;P2;SDS_P1;SDS_P2;PMS_P1;PMS_P2;Temp;Humidity;BMP_temperature;BMP_pressure;BME280_temperature;BME280_humidity;BME280_pressure;Samples;Min_cycle;Max_cycle;Signal;HPM_P1;HPM_P2
2024/01/11 00:00:37;;;;;;;9.23;8.32;;;17.50;53.40;;;;;;5104954;28;20219;-70
2024/01/11 00:03:03;;;;;;;9.90;8.65;;;17.50;52.80;;;;;;5099075;28;20188;-69
2024/01/11 00:05:29;;;;;;;9.15;8.25;;;17.50;52.90;;;;;;5097835;28;20545;-69
2024/01/11 00:07:55;;;;;;;10.07;8.88;;;17.50;52.80;;;;;;5091791;28;20199;-69
2024/01/11 00:10:21;;;;;;;9.82;8.82;;;17.50;52.80;;;;;;5083911;28;20180;-69
2024/01/11 00:12:47;;;;;;;9.85;8.85;;;17.50;52.80;;;;;;5074971;28;20181;-69
2024/01/11 00:15:13;;;;;;;10.32;9.15;;;17.50;52.70;;;;;;5090822;28;20231;-69
2024/01/11 00:17:39;;;;;;;9.52;8.63;;;17.50;52.80;;;;;;5089034;28;20205;-69
2024/01/11 00:20:06;;;;;;;9.63;8.63;;;17.50;52.70;;;;;;5080895;28;20184;-69
2024/01/11 00:22:32;;;;;;;9.50;8.45;;;17.50;52.70;;;;;;5097797;28;20192;-69
2024/01/11 00:24:58;;;;;;;9.60;8.60;;;17.50;52.70;;;;;;5104561;28;20211;-69
2024/01/11 00:27:24;;;;;;;9.15;8.25;;;17.50;52.70;;;;;;5104739;28;20252;-69
2024/01/11 00:29:49;;;;;;;9.57;8.57;;;17.50;52.70;;;;;;5101241;28;20227;-69
2024/01/11 00:32:15;;;;;;;9.65;8.65;;;17.50;52.80;;;;;;5086742;28;20215;-69
2024/01/11 00:34:41;;;;;;;10.02;9.02;;;17.50;52.70;;;;;;5104231;28;20291;-69
2024/01/11 00:37:07;;;;;;;9.98;8.98;;;17.50;52.60;;;;;;5097832;28;20209;-69
2024/01/11 00:39:32;;;;;;;9.20;8.30;;;17.50;52.70;;;;;;5098069;28;20206;-69
2024/01/11 00:41:58;;;;;;;9.07;8.18;;;17.50;52.60;;;;;;5080745;28;20675;-69
2024/01/11 00:44:24;;;;;;;10.35;9.25;;;17.50;52.60;;;;;;5107782;28;20211;-69
2024/01/11 00:46:49;;;;;;;10.23;9.13;;;17.40;52.50;;;;;;5105804;28;20184;-69
2024/01/11 00:49:15;;;;;;;9.43;8.27;;;17.50;52.60;;;;;;5081824;28;20239;-69
2024/01/11 00:51:41;;;;;;;10.25;9.25;;;17.50;52.60;;;;;;5117826;27;20683;-69
2024/01/11 00:54:07;;;;;;;10.02;9.00;;;17.50;52.60;;;;;;5110426;27;20205;-69
2024/01/11 00:56:33;;;;;;;9.88;8.88;;;17.50;52.60;;;;;;5077798;28;20208;-70
2024/01/11 00:58:58;;;;;;;8.93;8.02;;;17.50;52.50;;;;;;5108584;28;20188;-69
2024/01/11 01:01:24;;;;;;;10.07;9.07;;;17.50;52.70;;;;;;5085765;28;20203;-69
2024/01/11 01:03:50;;;;;;;9.95;8.95;;;17.50;52.60;;;;;;5102297;28;20196;-69
2024/01/11 01:06:15;;;;;;;10.25;9.20;;;17.40;52.50;;;;;;5090218;28;20185;-69
2024/01/11 01:08:41;;;;;;;10.43;9.40;;;17.50;52.40;;;;;;5078403;28;20188;-69
2024/01/11 01:11:07;;;;;;;8.88;8.02;;;17.50;52.50;;;;;;5086404;28;20215;-69
2024/01/11 01:13:32;;;;;;;10.20;8.93;;;17.40;52.50;;;;;;5105563;28;20196;-69
2024/01/11 01:15:58;;;;;;;9.40;8.45;;;17.50;52.50;;;;;;5104347;28;20212;-70
2024/01/11 01:18:24;;;;;;;9.52;8.63;;;17.40;52.50;;;;;;5109887;28;20184;-69
2024/01/11 01:20:50;;;;;;;10.10;8.90;;;17.50;52.50;;;;;;5093945;28;20176;-70
2024/01/11 01:23:16;;;;;;;10.07;8.93;;;17.50;52.50;;;;;;5104357;28;20214;-69
2024/01/11 01:25:42;;;;;;;10.13;9.02;;;17.50;52.90;;;;;;5084371;28;20176;-69
2024/01/11 01:28:07;;;;;;;9.27;8.20;;;17.40;52.40;;;;;;5096829;28;20196;-70
2024/01/11 01:30:33;;;;;;;9.13;8.23;;;17.50;52.40;;;;;;5093009;28;20188;-69
2024/01/11 01:32:59;;;;;;;9.52;8.48;;;17.50;52.50;;;;;;5084588;28;20202;-69
2024/01/11 01:35:25;;;;;;;11.05;8.98;;;17.40;52.40;;;;;;5098406;28;20211;-69
2024/01/11 01:37:50;;;;;;;10.35;8.80;;;17.40;52.40;;;;;;5073492;28;20197;-69
2024/01/11 01:40:16;;;;;;;10.10;9.10;;;17.40;52.40;;;;;;5097018;28;20192;-69
2024/01/11 01:42:44;;;;;;;8.98;8.07;;;17.50;52.40;;;;;;5083465;28;20187;-69
2024/01/11 01:45:10;;;;;;;9.55;8.45;;;17.40;52.40;;;;;;5100166;28;20283;-71
2024/01/11 01:47:37;;;;;;;9.60;8.57;;;17.40;52.40;;;;;;5091376;28;20686;-70
2024/01/11 01:50:05;;;;;;;9.65;8.65;;;17.40;52.30;;;;;;5078453;28;20250;-69
2024/01/11 01:52:33;;;;;;;9.77;8.77;;;17.40;52.30;;;;;;5101390;28;20242;-69
2024/01/11 01:54:59;;;;;;;9.40;8.50;;;17.40;52.40;;;;;;5095650;28;20216;-69
2024/01/11 01:57:25;;;;;;;9.95;8.57;;;17.40;52.40;;;;;;5094721;28;20217;-69
2024/01/11 01:59:52;;;;;;;10.20;9.20;;;17.40;52.30;;;;;;5086847;28;20187;-69
2024/01/11 02:02:20;;;;;;;10.23;9.10;;;17.40;52.40;;;;;;5097400;28;20189;-69
2024/01/11 02:04:47;;;;;;;10.45;9.15;;;17.40;52.30;;;;;;5077390;28;20205;-69
2024/01/11 02:07:14;;;;;;;9.95;8.95;;;17.40;52.30;;;;;;5078266;28;20199;-69
2024/01/11 02:09:40;;;;;;;9.85;8.85;;;17.40;52.30;;;;;;5099118;28;20651;-69
2024/01/11 02:12:10;;;;;;;9.60;8.63;;;17.40;52.30;;;;;;5074100;28;20196;-71
2024/01/11 02:14:38;;;;;;;9.57;8.57;;;17.40;52.20;;;;;;5106882;28;20291;-69
2024/01/11 02:17:04;;;;;;;10.23;8.88;;;17.40;52.20;;;;;;5106911;28;20213;-69
2024/01/11 02:19:30;;;;;;;9.50;8.60;;;17.40;52.20;;;;;;5085994;28;20184;-69
2024/01/11 02:22:02;;;;;;;10.68;9.38;;;17.40;52.20;;;;;;5079548;28;20549;-70
2024/01/11 02:24:28;;;;;;;9.73;8.73;;;17.40;52.30;;;;;;5096894;28;20210;-69
2024/01/11 02:27:02;;;;;;;9.82;8.82;;;17.40;52.20;;;;;;5101378;28;20183;-69
2024/01/11 02:29:30;;;;;;;10.73;9.32;;;17.40;52.20;;;;;;5107242;28;20180;-69
2024/01/11 02:31:57;;;;;;;9.90;8.75;;;17.40;52.10;;;;;;5085027;28;20189;-69
2024/01/11 02:34:24;;;;;;;9.48;8.43;;;17.40;52.20;;;;;;5089535;28;20292;-69
2024/01/11 02:36:50;;;;;;;9.82;8.82;;;17.40;52.10;;;;;;5081385;28;20235;-70
2024/01/11 02:39:19;;;;;;;10.20;8.80;;;17.40;52.20;;;;;;5102160;28;20192;-69
2024/01/11 02:41:46;;;;;;;9.85;8.85;;;17.40;52.10;;;;;;5105205;28;20180;-69
2024/01/11 02:44:11;;;;;;;9.82;8.82;;;17.40;52.10;;;;;;5097110;28;20593;-70
2024/01/11 02:46:37;;;;;;;8.85;7.95;;;17.40;52.20;;;;;;5094307;28;20181;-69
2024/01/11 02:49:03;;;;;;;9.70;8.70;;;17.40;52.10;;;;;;5101723;28;20246;-69
2024/01/11 02:51:29;;;;;;;9.60;8.70;;;17.40;52.20;;;;;;5099558;28;20189;-69
2024/01/11 02:53:55;;;;;;;9.32;8.30;;;17.40;52.10;;;;;;5105957;28;20226;-69
2024/01/11 02:56:20;;;;;;;9.77;8.77;;;17.40;52.10;;;;;;5086876;28;20200;-69
2024/01/11 02:58:46;;;;;;;9.43;8.40;;;17.40;52.10;;;;;;5097275;28;20203;-70
2024/01/11 03:01:12;;;;;;;8.85;7.95;;;17.40;52.10;;;;;;5080643;28;20274;-69
2024/01/11 03:03:37;;;;;;;10.63;8.38;;;17.40;52.10;;;;;;5103781;28;20200;-69
2024/01/11 03:06:04;;;;;;;8.95;8.05;;;17.40;52.10;;;;;;5075273;28;20668;-69
2024/01/11 03:08:30;;;;;;;9.82;8.82;;;17.40;52.00;;;;;;5095522;28;20196;-69
2024/01/11 03:10:55;;;;;;;9.50;8.50;;;17.40;52.10;;;;;;5097247;28;20264;-69
2024/01/11 03:13:23;;;;;;;9.35;8.45;;;17.40;52.00;;;;;;5109993;28;20684;-70
2024/01/11 03:15:48;;;;;;;9.63;8.63;;;17.40;52.10;;;;;;5101752;28;20188;-71
2024/01/11 03:18:14;;;;;;;9.23;8.32;;;17.40;52.10;;;;;;5105157;28;20194;-68
2024/01/11 03:20:40;;;;;;;9.27;8.25;;;17.40;52.10;;;;;;5104423;28;20188;-69
2024/01/11 03:23:06;;;;;;;10.00;9.00;;;17.40;52.00;;;;;;5093698;28;20188;-69
2024/01/11 03:25:31;;;;;;;9.07;8.20;;;17.40;52.00;;;;;;5075554;28;20216;-70
2024/01/11 03:28:00;;;;;;;8.98;8.07;;;17.40;52.10;;;;;;5096846;28;20184;-70
2024/01/11 03:30:26;;;;;;;9.20;8.23;;;17.40;52.00;;;;;;5100909;28;20200;-71
2024/01/11 03:32:52;;;;;;;9.25;8.30;;;17.40;52.10;;;;;;5104335;28;20187;-70
2024/01/11 03:35:18;;;;;;;9.70;8.70;;;17.40;52.00;;;;;;5079633;28;20218;-70
2024/01/11 03:37:45;;;;;;;8.90;7.97;;;17.40;52.00;;;;;;5078651;28;20224;-70
2024/01/11 03:40:11;;;;;;;9.68;8.18;;;17.40;52.00;;;;;;5079774;28;20185;-69
2024/01/11 03:42:37;;;;;;;8.80;7.90;;;17.40;52.00;;;;;;5102882;28;20196;-69
2024/01/11 03:45:04;;;;;;;9.20;8.25;;;17.40;52.00;;;;;;5097832;28;20207;-69
2024/01/11 03:47:30;;;;;;;8.70;7.82;;;17.40;51.90;;;;;;5093288;28;20193;-69
2024/01/11 03:49:56;;;;;;;9.35;8.40;;;17.40;52.00;;;;;;5092299;28;20241;-69
2024/01/11 03:52:22;;;;;;;9.35;8.45;;;17.40;51.90;;;;;;5089186;28;20272;-69
2024/01/11 03:54:48;;;;;;;8.77;7.90;;;17.40;51.90;;;;;;5093079;28;20226;-69
2024/01/11 03:57:14;;;;;;;8.25;7.45;;;17.40;51.90;;;;;;5087478;28;20217;-69
2024/01/11 03:59:41;;;;;;;8.45;7.45;;;17.40;51.90;;;;;;5091955;28;20195;-69
2024/01/11 04:02:07;;;;;;;7.65;6.95;;;17.40;51.90;;;;;;5091553;28;20193;-72
2024/01/11 04:04:33;;;;;;;8.05;7.25;;;17.40;52.00;;;;;;5087292;28;20230;-70
2024/01/11 04:06:59;;;;;;;8.52;7.65;;;17.40;52.00;;;;;;5074848;28;20196;-69
2024/01/11 04:09:25;;;;;;;7.78;6.97;;;17.40;51.90;;;;;;5086679;28;20194;-70
2024/01/11 04:11:51;;;;;;;7.90;7.18;;;17.40;51.90;;;;;;5091422;28;20188;-70
2024/01/11 04:14:16;;;;;;;8.20;7.40;;;17.40;51.90;;;;;;5091439;28;20251;-68
2024/01/11 04:16:43;;;;;;;8.85;7.50;;;17.40;51.80;;;;;;5073736;28;20300;-67
2024/01/11 04:19:09;;;;;;;8.05;7.22;;;17.40;51.90;;;;;;5088758;28;20723;-68
2024/01/11 04:21:38;;;;;;;8.10;7.30;;;17.40;52.00;;;;;;5070808;28;20182;-69
2024/01/11 04:24:08;;;;;;;8.25;7.45;;;17.40;51.90;;;;;;5073138;28;20218;-69
2024/01/11 04:26:34;;;;;;;7.88;7.07;;;17.40;51.80;;;;;;5086569;28;20194;-69
2024/01/11 04:29:00;;;;;;;8.20;7.28;;;17.40;51.80;;;;;;5092572;28;20185;-69
2024/01/11 04:31:26;;;;;;;7.70;7.00;;;17.40;51.80;;;;;;5074393;28;20192;-70
2024/01/11 04:33:53;;;;;;;7.60;6.80;;;17.40;51.90;;;;;;5090886;28;20216;-69
2024/01/11 04:36:18;;;;;;;8.35;7.47;;;17.40;51.90;;;;;;5107722;27;20209;-69
2024/01/11 04:38:44;;;;;;;8.15;6.90;;;17.40;51.90;;;;;;5101558;28;20184;-70
2024/01/11 04:41:12;;;;;;;7.90;7.15;;;17.40;51.80;;;;;;5083768;28;20214;-69
2024/01/11 04:43:43;;;;;;;8.05;7.25;;;17.40;51.80;;;;;;5096593;28;20213;-69
2024/01/11 04:46:27;;;;;;;7.70;7.00;;;17.40;51.90;;;;;;5097393;28;20250;-69
2024/01/11 04:48:53;;;;;;;7.95;7.15;;;17.40;51.80;;;;;;5089621;28;20181;-69
2024/01/11 04:51:19;;;;;;;7.78;7.00;;;17.40;51.80;;;;;;5090937;28;20280;-69
2024/01/11 04:53:46;;;;;;;7.57;6.88;;;17.40;51.90;;;;;;5083491;28;20295;-70
2024/01/11 04:56:15;;;;;;;8.07;7.30;;;17.40;51.80;;;;;;5090904;28;20220;-69
2024/01/11 04:58:43;;;;;;;7.53;6.82;;;17.40;51.80;;;;;;5093820;28;20195;-69
2024/01/11 05:01:14;;;;;;;7.78;7.00;;;17.40;51.80;;;;;;5094415;28;20193;-71
2024/01/11 05:03:39;;;;;;;7.97;7.18;;;17.40;52.40;;;;;;5100535;28;20204;-69
2024/01/11 05:06:06;;;;;;;7.90;7.15;;;17.40;51.90;;;;;;5094639;28;20779;-70
2024/01/11 05:08:31;;;;;;;7.70;6.90;;;17.40;51.80;;;;;;5094109;28;20201;-69
2024/01/11 05:10:57;;;;;;;7.68;6.93;;;17.40;51.80;;;;;;5092764;28;20306;-70
2024/01/11 05:13:24;;;;;;;8.20;7.30;;;17.40;51.80;;;;;;5073640;28;20220;-69
2024/01/11 05:15:49;;;;;;;7.32;6.70;;;17.40;51.80;;;;;;5097176;28;20198;-69
2024/01/11 05:18:15;;;;;;;8.10;6.82;;;17.40;51.80;;;;;;5096022;28;20262;-68
2024/01/11 05:20:41;;;;;;;7.95;7.15;;;17.40;51.80;;;;;;5094334;28;20184;-68
2024/01/11 05:23:07;;;;;;;7.88;7.13;;;17.40;51.80;;;;;;5093343;28;20176;-69
2024/01/11 05:25:35;;;;;;;8.20;7.15;;;17.40;51.80;;;;;;5073964;28;20611;-68
2024/01/11 05:28:03;;;;;;;9.50;7.07;;;17.40;51.80;;;;;;5095045;28;20282;-68
2024/01/11 05:30:30;;;;;;;7.70;6.90;;;17.40;51.80;;;;;;5076318;28;20195;-69
2024/01/11 05:32:56;;;;;;;7.10;6.40;;;17.40;51.80;;;;;;5077009;28;20288;-69
2024/01/11 05:35:27;;;;;;;7.65;6.90;;;17.40;51.80;;;;;;5109242;28;20293;-69
2024/01/11 05:37:56;;;;;;;7.30;6.60;;;17.40;52.40;;;;;;5100854;28;20279;-69
2024/01/11 05:40:22;;;;;;;8.20;7.40;;;17.40;51.80;;;;;;5096398;28;20189;-70
2024/01/11 05:42:48;;;;;;;8.02;7.32;;;17.40;51.90;;;;;;5090637;28;20196;-70
2024/01/11 05:45:16;;;;;;;7.72;6.93;;;17.40;51.90;;;;;;5077461;28;20212;-69
2024/01/11 05:47:44;;;;;;;7.35;6.65;;;17.40;51.90;;;;;;5083496;28;20200;-69
2024/01/11 05:50:12;;;;;;;7.55;6.85;;;17.40;51.90;;;;;;5099020;28;20250;-69
2024/01/11 05:52:37;;;;;;;7.25;6.55;;;17.40;51.80;;;;;;5092796;28;20197;-68
2024/01/11 05:55:05;;;;;;;7.50;6.68;;;17.40;51.90;;;;;;5100210;28;20223;-68
2024/01/11 05:57:30;;;;;;;7.38;6.68;;;17.40;51.90;;;;;;5097367;28;20238;-68
2024/01/11 05:59:56;;;;;;;7.93;7.13;;;17.40;51.90;;;;;;5098242;28;20176;-70
2024/01/11 06:02:22;;;;;;;7.60;6.80;;;17.40;52.40;;;;;;5087636;28;20193;-69
2024/01/11 06:04:49;;;;;;;8.43;7.30;;;17.40;51.90;;;;;;5099567;28;20205;-68
2024/01/11 06:07:15;;;;;;;7.70;6.93;;;17.40;51.90;;;;;;5088928;28;20254;-70
2024/01/11 06:09:41;;;;;;;8.52;7.28;;;17.40;51.90;;;;;;5081459;28;20193;-69
2024/01/11 06:12:07;;;;;;;8.90;8.00;;;17.30;51.80;;;;;;5093924;28;20188;-69
2024/01/11 06:14:33;;;;;;;8.65;7.75;;;17.30;51.80;;;;;;5095054;28;20726;-68
2024/01/11 06:16:58;;;;;;;8.27;7.47;;;17.30;51.80;;;;;;5078980;28;20224;-69
2024/01/11 06:19:24;;;;;;;8.48;7.57;;;17.30;51.80;;;;;;5104634;28;20199;-69
2024/01/11 06:21:50;;;;;;;8.70;7.90;;;17.40;51.80;;;;;;5095564;28;20216;-69
2024/01/11 06:24:15;;;;;;;9.07;8.18;;;17.30;51.70;;;;;;5112418;27;20208;-69
2024/01/11 06:26:41;;;;;;;9.15;8.27;;;17.30;51.70;;;;;;5103117;28;20197;-69
2024/01/11 06:29:07;;;;;;;9.05;8.15;;;17.30;51.80;;;;;;5113352;27;20622;-69
2024/01/11 06:31:32;;;;;;;8.82;8.02;;;17.30;51.60;;;;;;5114010;27;20203;-70
2024/01/11 06:33:58;;;;;;;8.38;7.60;;;17.30;51.60;;;;;;5095390;28;20212;-70
2024/01/11 06:36:24;;;;;;;9.05;8.15;;;17.30;51.70;;;;;;5078796;28;20243;-70
2024/01/11 06:38:50;;;;;;;9.65;8.60;;;17.30;51.60;;;;;;5094756;28;20195;-70
2024/01/11 06:41:15;;;;;;;8.35;7.55;;;17.30;51.70;;;;;;5096599;28;20193;-70
2024/01/11 06:43:41;;;;;;;9.27;8.38;;;17.30;51.70;;;;;;5097950;28;20213;-70
2024/01/11 06:46:09;;;;;;;8.82;7.97;;;17.30;51.60;;;;;;5077212;28;20262;-70
2024/01/11 06:48:34;;;;;;;8.73;7.82;;;17.30;51.60;;;;;;5089862;28;20194;-69
2024/01/11 06:51:00;;;;;;;9.07;7.88;;;17.30;51.60;;;;;;5085537;28;20643;-70
2024/01/11 06:53:26;;;;;;;8.07;7.28;;;17.30;51.50;;;;;;5093113;28;20196;-69
2024/01/11 06:55:52;;;;;;;8.05;7.35;;;17.40;51.60;;;;;;5096322;28;20189;-70
2024/01/11 06:58:23;;;;;;;9.32;8.43;;;17.40;51.60;;;;;;5115953;27;20255;-70
2024/01/11 07:00:50;;;;;;;8.23;7.43;;;17.30;51.50;;;;;;5090653;28;20187;-70
2024/01/11 07:03:16;;;;;;;8.63;7.72;;;17.40;51.60;;;;;;5095293;28;20305;-69
2024/01/11 07:05:42;;;;;;;8.68;7.75;;;17.30;51.50;;;;;;5091939;28;20185;-70
2024/01/11 07:08:08;;;;;;;9.90;8.70;;;17.40;51.60;;;;;;5078640;28;20235;-70
2024/01/11 07:10:34;;;;;;;9.55;8.57;;;17.40;51.60;;;;;;5094248;28;20192;-70
2024/01/11 07:12:59;;;;;;;9.32;8.38;;;17.30;51.50;;;;;;5109337;28;20196;-70
2024/01/11 07:15:25;;;;;;;9.38;8.40;;;17.40;51.60;;;;;;5076970;28;20200;-69
2024/01/11 07:17:51;;;;;;;8.23;7.45;;;17.40;51.70;;;;;;5094357;28;20213;-69
2024/01/11 07:20:18;;;;;;;8.95;7.85;;;17.40;51.60;;;;;;5095391;28;20187;-69
2024/01/11 07:22:44;;;;;;;8.80;7.70;;;17.40;51.60;;;;;;5078291;28;20192;-71
2024/01/11 07:25:10;;;;;;;8.55;7.65;;;17.40;51.60;;;;;;5111213;27;20205;-70
2024/01/11 07:27:36;;;;;;;8.75;7.88;;;17.40;51.60;;;;;;5093540;28;20634;-69
2024/01/11 07:30:03;;;;;;;8.70;7.88;;;17.40;51.60;;;;;;5091931;28;20226;-69
2024/01/11 07:32:28;;;;;;;8.77;7.93;;;17.40;51.60;;;;;;5091478;28;20239;-70
2024/01/11 07:34:54;;;;;;;9.27;8.32;;;17.40;51.60;;;;;;5108241;28;20608;-71
2024/01/11 07:37:20;;;;;;;7.97;7.25;;;17.40;51.60;;;;;;5108690;28;20205;-71
2024/01/11 07:39:45;;;;;;;9.05;8.15;;;17.30;51.60;;;;;;5091101;28;20181;-70
2024/01/11 07:42:11;;;;;;;8.88;7.97;;;17.30;51.50;;;;;;5080775;28;20571;-70
2024/01/11 07:44:37;;;;;;;9.05;7.90;;;17.40;51.60;;;;;;5088128;28;20204;-70
2024/01/11 07:47:03;;;;;;;9.40;8.50;;;17.40;51.60;;;;;;5077441;28;20203;-70
2024/01/11 07:49:28;;;;;;;9.45;8.52;;;17.30;51.50;;;;;;5100968;28;20196;-69
2024/01/11 07:51:54;;;;;;;8.50;7.70;;;17.40;51.60;;;;;;5074139;28;20190;-69
2024/01/11 07:54:20;;;;;;;8.35;7.50;;;17.40;51.60;;;;;;5091661;28;20209;-69
2024/01/11 07:56:45;;;;;;;9.35;8.38;;;17.40;51.60;;;;;;5092738;28;20212;-69
2024/01/11 07:59:14;;;;;;;9.73;8.73;;;17.30;51.50;;;;;;5075903;28;20185;-69
2024/01/11 08:01:40;;;;;;;9.15;8.15;;;17.40;51.60;;;;;;5091517;28;20204;-69
2024/01/11 08:04:06;;;;;;;9.15;8.25;;;17.30;51.50;;;;;;5107376;28;20288;-69
2024/01/11 08:06:32;;;;;;;8.85;8.02;;;17.40;51.60;;;;;;5092012;28;20223;-70
2024/01/11 08:08:58;;;;;;;9.15;8.23;;;17.40;51.50;;;;;;5100120;28;20228;-72
2024/01/11 08:11:23;;;;;;;9.68;8.77;;;17.40;51.60;;;;;;5089199;28;20239;-69
2024/01/11 08:13:49;;;;;;;9.27;8.38;;;17.40;51.60;;;;;;5088762;28;20235;-70
2024/01/11 08:16:18;;;;;;;9.77;8.80;;;17.40;51.50;;;;;;5107880;28;20250;-70
2024/01/11 08:18:45;;;;;;;9.73;8.75;;;17.40;51.60;;;;;;5092367;28;20185;-69
2024/01/11 08:21:11;;;;;;;9.55;8.65;;;17.40;51.50;;;;;;5107853;28;20242;-70
2024/01/11 08:23:44;;;;;;;9.60;8.70;;;17.40;51.60;;;;;;5079509;28;20205;-69
2024/01/11 08:26:13;;;;;;;8.88;7.97;;;17.40;51.60;;;;;;5091255;28;20189;-70
2024/01/11 08:28:39;;;;;;;9.48;8.55;;;17.40;52.10;;;;;;5092926;28;20195;-69
2024/01/11 08:31:06;;;;;;;10.20;8.40;;;17.40;51.60;;;;;;5108231;28;20271;-70
2024/01/11 08:33:32;;;;;;;9.00;8.10;;;17.40;51.60;;;;;;5107598;28;20203;-70
2024/01/11 08:35:58;;;;;;;9.45;8.45;;;17.40;51.60;;;;;;5090886;28;20200;-70
2024/01/11 08:38:24;;;;;;;12.05;8.30;;;17.40;51.60;;;;;;5082636;28;20195;-69
2024/01/11 08:40:51;;;;;;;10.02;8.80;;;17.40;51.60;;;;;;5100688;28;20188;-70
2024/01/11 08:43:17;;;;;;;9.55;8.55;;;17.40;51.60;;;;;;5088316;28;20209;-70
2024/01/11 08:45:46;;;;;;;8.63;7.80;;;17.40;51.60;;;;;;5100515;28;20240;-69
2024/01/11 08:48:13;;;;;;;9.90;8.90;;;17.40;51.60;;;;;;5102435;28;20192;-69
2024/01/11 08:50:39;;;;;;;9.90;8.90;;;17.40;51.60;;;;;;5090996;28;20185;-70
2024/01/11 08:53:04;;;;;;;9.32;8.43;;;17.40;51.60;;;;;;5100440;28;20210;-70
2024/01/11 08:55:30;;;;;;;9.30;8.45;;;17.40;51.60;;;;;;5099234;28;20209;-69
2024/01/11 08:57:56;;;;;;;9.32;8.43;;;17.40;51.60;;;;;;5109224;28;20294;-70
2024/01/11 09:00:22;;;;;;;9.07;8.18;;;17.40;51.60;;;;;;5098089;28;20189;-70
2024/01/11 09:02:48;;;;;;;9.18;8.27;;;17.40;51.60;;;;;;5098517;28;20180;-70
2024/01/11 09:05:16;;;;;;;9.10;8.20;;;17.40;52.10;;;;;;5098937;28;20193;-69
2024/01/11 09:07:42;;;;;;;8.73;7.82;;;17.40;51.60;;;;;;5099067;28;20718;-69
2024/01/11 09:10:08;;;;;;;9.50;8.60;;;17.40;51.60;;;;;;5108488;28;20271;-71
2024/01/11 09:12:36;;;;;;;8.90;8.10;;;17.40;51.60;;;;;;5097642;28;20345;-70
2024/01/11 09:15:03;;;;;;;9.13;8.23;;;17.40;51.60;;;;;;5092412;28;20221;-69
2024/01/11 09:17:29;;;;;;;9.38;8.50;;;17.40;51.60;;;;;;5079070;28;20204;-69
2024/01/11 09:19:54;;;;;;;8.27;7.57;;;17.40;51.60;;;;;;5084672;28;20196;-71
2024/01/11 09:22:20;;;;;;;9.48;8.48;;;17.50;51.60;;;;;;5085122;28;20188;-69
2024/01/11 09:24:46;;;;;;;9.57;8.30;;;17.50;51.60;;;;;;5102164;28;20238;-70
2024/01/11 09:27:12;;;;;;;9.73;8.77;;;17.50;51.60;;;;;;5081685;28;20184;-69
2024/01/11 09:29:44;;;;;;;8.45;7.57;;;17.50;51.70;;;;;;5087236;28;20662;-69
2024/01/11 09:32:10;;;;;;;9.65;8.65;;;17.50;51.70;;;;;;5109854;28;20613;-68
2024/01/11 09:34:35;;;;;;;8.90;8.00;;;17.50;51.60;;;;;;5109787;28;20204;-70
2024/01/11 09:37:01;;;;;;;9.65;8.43;;;17.50;51.70;;;;;;5117094;28;20226;-70
2024/01/11 09:39:27;;;;;;;8.98;8.10;;;17.50;51.70;;;;;;5091655;28;20177;-70
2024/01/11 09:42:10;;;;;;;8.88;8.05;;;17.50;51.60;;;;;;5081303;28;20177;-69
2024/01/11 09:44:38;;;;;;;8.65;7.72;;;17.50;51.70;;;;;;5090229;28;20205;-69
2024/01/11 09:47:07;;;;;;;9.02;8.05;;;17.50;51.70;;;;;;5097761;28;20189;-69
2024/01/11 09:49:35;;;;;;;9.27;8.38;;;17.50;51.70;;;;;;5103494;28;20195;-69
2024/01/11 09:52:03;;;;;;;9.43;8.50;;;17.50;51.60;;;;;;5108894;28;20193;-69
2024/01/11 09:54:29;;;;;;;8.95;8.05;;;17.50;51.60;;;;;;5078189;28;20228;-69
2024/01/11 09:56:59;;;;;;;9.27;8.00;;;17.50;51.60;;;;;;5107654;28;20204;-70
2024/01/11 09:59:25;;;;;;;9.35;8.30;;;17.50;51.70;;;;;;5080610;28;20189;-70
2024/01/11 10:01:52;;;;;;;8.80;7.93;;;17.50;51.60;;;;;;5073392;28;20177;-69
2024/01/11 10:04:18;;;;;;;9.05;8.15;;;17.50;51.60;;;;;;5083301;28;20196;-71
2024/01/11 10:06:45;;;;;;;9.43;8.18;;;17.50;51.70;;;;;;5094425;28;20648;-70
2024/01/11 10:09:10;;;;;;;8.48;7.60;;;17.50;51.70;;;;;;5089703;28;20200;-69
2024/01/11 10:11:37;;;;;;;8.80;7.82;;;17.50;51.70;;;;;;5109387;28;20180;-70
2024/01/11 10:14:05;;;;;;;8.23;7.43;;;17.50;51.60;;;;;;5081507;28;20581;-69
2024/01/11 10:16:31;;;;;;;8.88;7.97;;;17.50;51.70;;;;;;5096379;28;20583;-70
2024/01/11 10:18:57;;;;;;;9.07;8.15;;;17.50;51.70;;;;;;5073034;28;20267;-70
2024/01/11 10:21:27;;;;;;;9.15;8.13;;;17.60;51.80;;;;;;5086272;28;20188;-70
2024/01/11 10:23:54;;;;;;;8.82;8.02;;;17.60;51.70;;;;;;5114014;28;20205;-69
2024/01/11 10:26:21;;;;;;;8.48;7.57;;;17.50;51.70;;;;;;5090225;28;20184;-69
2024/01/11 10:28:47;;;;;;;9.43;8.43;;;17.60;51.80;;;;;;5078172;28;20185;-70
2024/01/11 10:31:16;;;;;;;9.25;8.30;;;17.50;51.70;;;;;;5105111;28;20189;-70
2024/01/11 10:33:43;;;;;;;8.98;8.07;;;17.60;51.80;;;;;;5104330;28;20204;-70
2024/01/11 10:36:11;;;;;;;8.20;7.40;;;17.60;51.80;;;;;;5088701;28;20206;-70
2024/01/11 10:38:39;;;;;;;8.82;7.93;;;17.60;51.80;;;;;;5078410;28;20862;-70
2024/01/11 10:41:07;;;;;;;8.80;8.00;;;17.60;51.80;;;;;;5082774;28;20185;-67
2024/01/11 10:43:37;;;;;;;8.45;7.53;;;17.60;51.80;;;;;;5111817;28;20225;-69
2024/01/11 10:46:06;;;;;;;8.85;7.72;;;17.50;51.80;;;;;;5103726;28;20188;-69
2024/01/11 10:48:38;;;;;;;8.02;7.18;;;17.60;51.80;;;;;;5097774;28;20188;-70
2024/01/11 10:51:12;;;;;;;8.63;7.72;;;17.60;51.80;;;;;;5083193;28;20189;-70
2024/01/11 10:53:50;;;;;;;8.52;7.72;;;17.60;51.80;;;;;;5098013;28;20266;-70
2024/01/11 10:56:16;;;;;;;9.10;8.20;;;17.60;51.80;;;;;;5105011;28;20213;-70
2024/01/11 10:58:44;;;;;;;9.70;8.70;;;17.60;51.90;;;;;;5076601;28;20185;-69
2024/01/11 11:01:13;;;;;;;8.70;7.80;;;17.60;51.90;;;;;;5099626;28;20192;-70
2024/01/11 11:03:42;;;;;;;8.13;7.32;;;17.60;51.90;;;;;;5099606;28;20295;-69
2024/01/11 11:06:09;;;;;;;8.27;7.47;;;17.60;52.00;;;;;;5106342;28;20690;-70
2024/01/11 11:08:39;;;;;;;7.82;7.13;;;17.60;51.90;;;;;;5080623;28;20666;-70
2024/01/11 11:11:06;;;;;;;8.55;7.75;;;17.60;52.00;;;;;;5098712;28;20690;-70
2024/01/11 11:13:34;;;;;;;8.15;7.35;;;17.60;51.90;;;;;;5079723;28;20192;-70
2024/01/11 11:16:03;;;;;;;7.93;7.13;;;17.60;52.00;;;;;;5094955;28;20272;-69
2024/01/11 11:18:30;;;;;;;8.93;8.02;;;17.60;51.90;;;;;;5079498;28;20324;-69
2024/01/11 11:20:57;;;;;;;7.85;7.05;;;17.60;51.90;;;;;;5103644;28;20185;-69
2024/01/11 11:23:23;;;;;;;8.00;7.20;;;17.60;51.90;;;;;;5084642;28;20266;-70
2024/01/11 11:25:49;;;;;;;7.85;7.03;;;17.60;51.90;;;;;;5123156;27;20215;-70
2024/01/11 11:28:18;;;;;;;8.63;7.82;;;17.60;51.90;;;;;;5098143;28;20203;-70
2024/01/11 11:30:51;;;;;;;8.13;7.32;;;17.60;52.00;;;;;;5098074;28;20242;-70
2024/01/11 11:33:24;;;;;;;8.43;7.50;;;17.60;52.00;;;;;;5098457;28;20192;-70
2024/01/11 11:36:13;;;;;;;8.02;7.22;;;17.60;52.00;;;;;;5101895;28;20254;-70
2024/01/11 11:38:39;;;;;;;8.20;7.40;;;17.60;52.00;;;;;;5097386;28;20731;-69
2024/01/11 11:41:05;;;;;;;8.52;7.63;;;17.60;51.90;;;;;;5076819;28;20311;-69
2024/01/11 11:43:31;;;;;;;8.80;7.90;;;17.60;52.00;;;;;;5085982;28;20189;-70
2024/01/11 11:45:57;;;;;;;8.65;7.75;;;17.60;52.00;;;;;;5098531;28;20186;-70
2024/01/11 11:48:29;;;;;;;8.75;7.72;;;17.60;52.00;;;;;;5104084;28;20188;-69
2024/01/11 11:51:11;;;;;;;8.38;7.57;;;17.60;52.00;;;;;;5097622;28;20184;-69
2024/01/11 11:53:39;;;;;;;8.00;7.20;;;17.60;52.00;;;;;;5093549;28;20294;-69
2024/01/11 11:56:06;;;;;;;8.10;7.30;;;17.70;52.10;;;;;;5110500;27;20192;-70
2024/01/11 11:58:34;;;;;;;7.80;7.05;;;17.60;52.00;;;;;;5101782;28;20188;-70
2024/01/11 12:01:02;;;;;;;8.45;7.55;;;17.70;52.00;;;;;;5081332;28;20181;-69
2024/01/11 12:03:33;;;;;;;7.97;7.18;;;17.70;52.10;;;;;;5099454;28;20285;-70
2024/01/11 12:06:00;;;;;;;7.85;7.15;;;17.60;52.00;;;;;;5105564;28;20203;-70
2024/01/11 12:08:27;;;;;;;7.97;7.18;;;17.70;52.10;;;;;;5102998;28;20189;-69
2024/01/11 12:10:53;;;;;;;8.07;7.28;;;17.60;52.00;;;;;;5080200;28;20200;-70
2024/01/11 12:13:19;;;;;;;8.65;7.85;;;17.70;52.10;;;;;;5098746;28;20201;-70
2024/01/11 12:15:46;;;;;;;8.38;7.50;;;17.70;52.20;;;;;;5106659;28;20202;-69
2024/01/11 12:18:12;;;;;;;8.80;7.68;;;17.70;52.10;;;;;;5086061;28;20223;-69
2024/01/11 12:20:38;;;;;;;8.00;7.18;;;17.70;52.20;;;;;;5105378;28;20184;-69
2024/01/11 12:23:04;;;;;;;7.93;7.13;;;17.70;52.20;;;;;;5073942;28;20243;-70
2024/01/11 12:25:31;;;;;;;7.65;6.95;;;17.70;52.10;;;;;;5102551;28;20217;-70
2024/01/11 12:27:57;;;;;;;7.97;7.18;;;17.70;52.20;;;;;;5089615;28;20181;-70
2024/01/11 12:30:25;;;;;;;7.57;6.88;;;17.70;52.10;;;;;;5074832;28;20538;-70
2024/01/11 12:32:51;;;;;;;7.60;6.85;;;17.70;52.10;;;;;;5088162;28;20184;-70
2024/01/11 12:35:17;;;;;;;7.70;7.03;;;17.70;52.20;;;;;;5074121;28;20204;-71
2024/01/11 12:37:54;;;;;;;8.40;7.55;;;17.70;52.20;;;;;;5074195;28;20209;-71
2024/01/11 12:40:23;;;;;;;7.10;6.40;;;17.70;52.10;;;;;;5071760;28;20177;-70
2024/01/11 12:42:50;;;;;;;7.82;7.03;;;17.70;52.20;;;;;;5091259;28;20185;-71